Huvudsida
METAR-TAF:

METAR-TAF

Flygplatser :

Málaga-Costa del Sols flygplats

Málaga, Spanien

latitud: 36-40N, longitud: 004-29W, höjd: 16 m

Aktuellt väderrapport

Denna rapport gjordes för 53 minuter sedan, klockan 04:30 UTC
Vind 7 kt från väst/nordväst
Temperatur 21°C
Fuktighet 83%
Tryck 1019 hPa
Sikt 10 km eller mer
Inga moln under 1 500 m eller inga cumulonimbus

METAR: LEMG 230430Z 30007KT CAVOK 21/18 Q1019 NOSIG

Tid: 07:23 (05:23 UTC)

Väderprognos

Denna rapport gjordes för 6 timmar och 23 minuter sedan, klockan 23:00 UTC
Prognos gäller från 23 kl. 00 UTC till 23 kl. 24 UTC
Vind 3 kt varierande vindriktning
Sikt 10 km eller mer
Få moln på en höjd av 3500 ft
Blir
från 23 kl. 08 UTC till 23 kl. 10 UTC
Vind 10 kt från sydost
Blir
från 23 kl. 18 UTC till 23 kl. 20 UTC
Vind 3 kt varierande vindriktning

TAF: LEMG 222300Z 2300/2324 VRB03KT 9999 FEW035 TX29/2315Z TN20/2305Z BECMG 2308/2310 13010KT BECMG 2318/2320 VRB03KT

Aktuella väderrapporter och prognoser från 4000 flygplatser (METAR- och TAF-rapporter).

De tillgängliga stationerna syns som gula och röda prickar på kartan.

För musen över prickarna för att se namnen på stationerna.

Klicka sedan för att få väderrapporter och prognoser.

För att ändra kartan: Klicka på de gröna knapparna med ett svart kors på för att zooma in; den gröna knappen med ett streck på för att zooma ut; eller på de gröna pilarna för angränsande kartor.


METAR-TAF: